sensor_id;sensor_type;location;lat;lon;timestamp;P1;durP1;ratioP1;P2;durP2;ratioP2
13327;SDS011;6733;51.044;3.746;2023-08-06T00:02:04;6.03;;;5.30;;
13327;SDS011;6733;51.044;3.746;2023-08-06T00:04:30;9.20;;;6.20;;
13327;SDS011;6733;51.044;3.746;2023-08-06T00:06:56;7.57;;;6.07;;
13327;SDS011;6733;51.044;3.746;2023-08-06T00:09:22;10.07;;;6.83;;
13327;SDS011;6733;51.044;3.746;2023-08-06T00:11:48;9.87;;;7.73;;
13327;SDS011;6733;51.044;3.746;2023-08-06T00:14:15;10.57;;;6.90;;
13327;SDS011;6733;51.044;3.746;2023-08-06T00:16:43;11.37;;;7.50;;
13327;SDS011;6733;51.044;3.746;2023-08-06T00:19:10;9.27;;;7.33;;
13327;SDS011;6733;51.044;3.746;2023-08-06T00:21:36;10.33;;;7.43;;
13327;SDS011;6733;51.044;3.746;2023-08-06T00:24:03;10.97;;;8.10;;
13327;SDS011;6733;51.044;3.746;2023-08-06T00:26:29;12.10;;;8.13;;
13327;SDS011;6733;51.044;3.746;2023-08-06T00:28:55;12.17;;;7.80;;
13327;SDS011;6733;51.044;3.746;2023-08-06T00:31:21;9.23;;;7.53;;
13327;SDS011;6733;51.044;3.746;2023-08-06T00:33:47;14.47;;;8.50;;
13327;SDS011;6733;51.044;3.746;2023-08-06T00:36:13;9.03;;;8.10;;
13327;SDS011;6733;51.044;3.746;2023-08-06T02:19:39;6.60;;;3.40;;
13327;SDS011;6733;51.044;3.746;2023-08-06T02:22:06;4.77;;;2.30;;
13327;SDS011;6733;51.044;3.746;2023-08-06T02:24:32;7.67;;;2.27;;
13327;SDS011;6733;51.044;3.746;2023-08-06T02:26:58;3.93;;;2.50;;
13327;SDS011;6733;51.044;3.746;2023-08-06T02:29:24;9.73;;;2.50;;
13327;SDS011;6733;51.044;3.746;2023-08-06T02:31:50;6.40;;;2.60;;
13327;SDS011;6733;51.044;3.746;2023-08-06T02:34:16;7.00;;;3.03;;
13327;SDS011;6733;51.044;3.746;2023-08-06T02:37:07;7.90;;;3.90;;
13327;SDS011;6733;51.044;3.746;2023-08-06T02:39:58;7.87;;;3.00;;
13327;SDS011;6733;51.044;3.746;2023-08-06T02:42:49;8.40;;;3.63;;
13327;SDS011;6733;51.044;3.746;2023-08-06T02:45:40;6.30;;;3.60;;
13327;SDS011;6733;51.044;3.746;2023-08-06T02:48:31;5.80;;;3.40;;
13327;SDS011;6733;51.044;3.746;2023-08-06T02:51:22;6.50;;;3.50;;
13327;SDS011;6733;51.044;3.746;2023-08-06T02:54:14;7.40;;;3.67;;
13327;SDS011;6733;51.044;3.746;2023-08-06T02:57:05;11.03;;;4.60;;
13327;SDS011;6733;51.044;3.746;2023-08-06T02:59:32;10.60;;;4.67;;
13327;SDS011;6733;51.044;3.746;2023-08-06T03:01:58;13.95;;;5.20;;
13327;SDS011;6733;51.044;3.746;2023-08-06T03:04:24;12.13;;;5.20;;
13327;SDS011;6733;51.044;3.746;2023-08-06T03:06:53;11.87;;;5.83;;
13327;SDS011;6733;51.044;3.746;2023-08-06T03:09:20;14.20;;;6.40;;
13327;SDS011;6733;51.044;3.746;2023-08-06T03:11:46;12.47;;;7.00;;
13327;SDS011;6733;51.044;3.746;2023-08-06T03:14:12;15.37;;;6.47;;
13327;SDS011;6733;51.044;3.746;2023-08-06T03:16:38;13.27;;;6.30;;
13327;SDS011;6733;51.044;3.746;2023-08-06T03:19:04;12.87;;;7.00;;
13327;SDS011;6733;51.044;3.746;2023-08-06T03:21:31;17.33;;;7.83;;
13327;SDS011;6733;51.044;3.746;2023-08-06T03:23:57;19.97;;;8.23;;
13327;SDS011;6733;51.044;3.746;2023-08-06T03:26:24;21.83;;;8.47;;
13327;SDS011;6733;51.044;3.746;2023-08-06T03:28:50;15.83;;;8.63;;
13327;SDS011;6733;51.044;3.746;2023-08-06T03:31:16;12.70;;;8.37;;
13327;SDS011;6733;51.044;3.746;2023-08-06T03:33:42;24.23;;;9.27;;
13327;SDS011;6733;51.044;3.746;2023-08-06T03:36:08;28.50;;;10.87;;
13327;SDS011;6733;51.044;3.746;2023-08-06T03:38:34;22.40;;;9.77;;
13327;SDS011;6733;51.044;3.746;2023-08-06T03:41:01;21.10;;;9.83;;
13327;SDS011;6733;51.044;3.746;2023-08-06T03:43:27;29.73;;;10.57;;
13327;SDS011;6733;51.044;3.746;2023-08-06T03:45:53;26.13;;;9.70;;
13327;SDS011;6733;51.044;3.746;2023-08-06T03:48:19;24.97;;;9.47;;
13327;SDS011;6733;51.044;3.746;2023-08-06T03:50:46;19.70;;;9.43;;
13327;SDS011;6733;51.044;3.746;2023-08-06T03:53:12;26.00;;;9.13;;
13327;SDS011;6733;51.044;3.746;2023-08-06T03:55:38;26.23;;;8.40;;
13327;SDS011;6733;51.044;3.746;2023-08-06T03:58:04;34.57;;;7.80;;
13327;SDS011;6733;51.044;3.746;2023-08-06T04:00:30;31.57;;;8.07;;
13327;SDS011;6733;51.044;3.746;2023-08-06T04:02:57;34.17;;;8.17;;
13327;SDS011;6733;51.044;3.746;2023-08-06T04:05:23;23.67;;;7.57;;
13327;SDS011;6733;51.044;3.746;2023-08-06T04:07:49;20.87;;;7.00;;
13327;SDS011;6733;51.044;3.746;2023-08-06T04:10:16;30.00;;;7.33;;
13327;SDS011;6733;51.044;3.746;2023-08-06T04:12:42;19.93;;;6.67;;
13327;SDS011;6733;51.044;3.746;2023-08-06T04:15:08;21.93;;;6.37;;
13327;SDS011;6733;51.044;3.746;2023-08-06T04:17:34;21.23;;;5.80;;
13327;SDS011;6733;51.044;3.746;2023-08-06T04:20:00;23.37;;;6.20;;
13327;SDS011;6733;51.044;3.746;2023-08-06T04:22:27;18.87;;;5.80;;
13327;SDS011;6733;51.044;3.746;2023-08-06T04:24:54;16.23;;;5.33;;
13327;SDS011;6733;51.044;3.746;2023-08-06T04:27:20;14.87;;;5.20;;
13327;SDS011;6733;51.044;3.746;2023-08-06T04:29:46;22.57;;;5.97;;
13327;SDS011;6733;51.044;3.746;2023-08-06T04:32:12;17.80;;;5.63;;
13327;SDS011;6733;51.044;3.746;2023-08-06T04:34:38;19.60;;;5.33;;
13327;SDS011;6733;51.044;3.746;2023-08-06T04:37:04;17.43;;;6.00;;
13327;SDS011;6733;51.044;3.746;2023-08-06T04:39:31;17.17;;;4.97;;
13327;SDS011;6733;51.044;3.746;2023-08-06T04:41:57;11.87;;;5.60;;
13327;SDS011;6733;51.044;3.746;2023-08-06T04:44:23;16.27;;;5.87;;
13327;SDS011;6733;51.044;3.746;2023-08-06T04:46:50;18.70;;;5.67;;
13327;SDS011;6733;51.044;3.746;2023-08-06T04:49:16;19.83;;;6.00;;
13327;SDS011;6733;51.044;3.746;2023-08-06T04:51:43;15.80;;;5.27;;
13327;SDS011;6733;51.044;3.746;2023-08-06T04:54:09;14.47;;;5.60;;
13327;SDS011;6733;51.044;3.746;2023-08-06T04:56:35;20.07;;;6.13;;
13327;SDS011;6733;51.044;3.746;2023-08-06T04:59:02;21.40;;;6.00;;
13327;SDS011;6733;51.044;3.746;2023-08-06T05:01:28;11.70;;;6.07;;
13327;SDS011;6733;51.044;3.746;2023-08-06T05:03:54;13.43;;;6.03;;
13327;SDS011;6733;51.044;3.746;2023-08-06T05:06:20;18.73;;;6.37;;
13327;SDS011;6733;51.044;3.746;2023-08-06T05:08:46;19.87;;;6.47;;
13327;SDS011;6733;51.044;3.746;2023-08-06T05:11:13;17.13;;;6.30;;
13327;SDS011;6733;51.044;3.746;2023-08-06T05:13:39;14.93;;;6.23;;
13327;SDS011;6733;51.044;3.746;2023-08-06T05:16:05;20.23;;;7.00;;
13327;SDS011;6733;51.044;3.746;2023-08-06T05:18:31;17.10;;;6.77;;
13327;SDS011;6733;51.044;3.746;2023-08-06T05:20:59;15.23;;;6.60;;
13327;SDS011;6733;51.044;3.746;2023-08-06T05:23:26;14.40;;;6.60;;
13327;SDS011;6733;51.044;3.746;2023-08-06T05:25:52;13.73;;;6.50;;
13327;SDS011;6733;51.044;3.746;2023-08-06T05:28:18;18.13;;;6.93;;
13327;SDS011;6733;51.044;3.746;2023-08-06T05:30:44;17.77;;;7.30;;
13327;SDS011;6733;51.044;3.746;2023-08-06T05:33:10;16.23;;;7.70;;
13327;SDS011;6733;51.044;3.746;2023-08-06T05:35:37;19.67;;;7.67;;
13327;SDS011;6733;51.044;3.746;2023-08-06T05:38:03;18.80;;;7.60;;
13327;SDS011;6733;51.044;3.746;2023-08-06T05:40:29;17.17;;;7.57;;
13327;SDS011;6733;51.044;3.746;2023-08-06T05:42:55;14.33;;;6.60;;
13327;SDS011;6733;51.044;3.746;2023-08-06T05:45:21;16.70;;;7.50;;
13327;SDS011;6733;51.044;3.746;2023-08-06T05:47:48;27.67;;;8.10;;
13327;SDS011;6733;51.044;3.746;2023-08-06T05:50:14;22.40;;;8.27;;
13327;SDS011;6733;51.044;3.746;2023-08-06T05:52:41;12.30;;;6.67;;
13327;SDS011;6733;51.044;3.746;2023-08-06T05:55:07;20.33;;;6.83;;
13327;SDS011;6733;51.044;3.746;2023-08-06T05:57:33;12.97;;;6.27;;
13327;SDS011;6733;51.044;3.746;2023-08-06T06:00:00;9.43;;;4.40;;
13327;SDS011;6733;51.044;3.746;2023-08-06T06:02:27;7.53;;;3.70;;
13327;SDS011;6733;51.044;3.746;2023-08-06T06:04:53;10.90;;;3.97;;
13327;SDS011;6733;51.044;3.746;2023-08-06T06:07:19;7.93;;;3.60;;
13327;SDS011;6733;51.044;3.746;2023-08-06T06:09:45;10.90;;;3.77;;
13327;SDS011;6733;51.044;3.746;2023-08-06T06:12:11;12.20;;;3.23;;
13327;SDS011;6733;51.044;3.746;2023-08-06T06:14:38;13.13;;;3.27;;
13327;SDS011;6733;51.044;3.746;2023-08-06T06:17:04;12.27;;;2.80;;
13327;SDS011;6733;51.044;3.746;2023-08-06T06:19:30;11.90;;;3.30;;
13327;SDS011;6733;51.044;3.746;2023-08-06T06:21:56;14.07;;;3.03;;
13327;SDS011;6733;51.044;3.746;2023-08-06T06:24:23;9.33;;;2.83;;
13327;SDS011;6733;51.044;3.746;2023-08-06T06:26:49;15.13;;;3.40;;
13327;SDS011;6733;51.044;3.746;2023-08-06T06:29:15;14.27;;;3.03;;
13327;SDS011;6733;51.044;3.746;2023-08-06T06:31:41;13.47;;;3.10;;
13327;SDS011;6733;51.044;3.746;2023-08-06T06:34:08;12.43;;;3.00;;
13327;SDS011;6733;51.044;3.746;2023-08-06T06:36:34;10.67;;;3.23;;
13327;SDS011;6733;51.044;3.746;2023-08-06T06:39:00;13.10;;;3.27;;
13327;SDS011;6733;51.044;3.746;2023-08-06T06:41:26;10.07;;;3.00;;
13327;SDS011;6733;51.044;3.746;2023-08-06T06:43:55;12.63;;;3.00;;
13327;SDS011;6733;51.044;3.746;2023-08-06T06:46:21;12.10;;;3.00;;
13327;SDS011;6733;51.044;3.746;2023-08-06T06:48:47;12.60;;;3.17;;
13327;SDS011;6733;51.044;3.746;2023-08-06T06:51:13;9.73;;;3.30;;
13327;SDS011;6733;51.044;3.746;2023-08-06T06:53:39;14.63;;;4.00;;
13327;SDS011;6733;51.044;3.746;2023-08-06T06:56:06;12.67;;;3.10;;
13327;SDS011;6733;51.044;3.746;2023-08-06T06:58:32;12.73;;;3.27;;
13327;SDS011;6733;51.044;3.746;2023-08-06T07:00:58;11.50;;;3.60;;
13327;SDS011;6733;51.044;3.746;2023-08-06T07:03:25;9.40;;;3.80;;
13327;SDS011;6733;51.044;3.746;2023-08-06T07:05:51;8.67;;;3.53;;
13327;SDS011;6733;51.044;3.746;2023-08-06T07:08:22;12.90;;;3.40;;
13327;SDS011;6733;51.044;3.746;2023-08-06T07:10:48;12.00;;;3.00;;
13327;SDS011;6733;51.044;3.746;2023-08-06T07:13:14;12.73;;;3.10;;
13327;SDS011;6733;51.044;3.746;2023-08-06T07:15:42;10.53;;;3.20;;
13327;SDS011;6733;51.044;3.746;2023-08-06T07:18:08;9.17;;;3.03;;
13327;SDS011;6733;51.044;3.746;2023-08-06T07:20:34;11.80;;;3.80;;
13327;SDS011;6733;51.044;3.746;2023-08-06T07:23:00;5.53;;;2.90;;
13327;SDS011;6733;51.044;3.746;2023-08-06T07:25:27;11.67;;;2.80;;
13327;SDS011;6733;51.044;3.746;2023-08-06T07:27:53;6.00;;;2.63;;
13327;SDS011;6733;51.044;3.746;2023-08-06T07:30:20;11.10;;;3.00;;
13327;SDS011;6733;51.044;3.746;2023-08-06T07:32:47;8.17;;;2.83;;
13327;SDS011;6733;51.044;3.746;2023-08-06T07:35:13;7.87;;;2.87;;
13327;SDS011;6733;51.044;3.746;2023-08-06T07:37:40;10.93;;;2.83;;
13327;SDS011;6733;51.044;3.746;2023-08-06T07:40:06;8.67;;;2.60;;
13327;SDS011;6733;51.044;3.746;2023-08-06T07:42:33;8.43;;;2.80;;
13327;SDS011;6733;51.044;3.746;2023-08-06T07:44:59;8.93;;;3.50;;
13327;SDS011;6733;51.044;3.746;2023-08-06T07:47:27;8.10;;;2.90;;
13327;SDS011;6733;51.044;3.746;2023-08-06T07:49:53;12.70;;;3.17;;
13327;SDS011;6733;51.044;3.746;2023-08-06T07:52:19;7.87;;;2.50;;
13327;SDS011;6733;51.044;3.746;2023-08-06T07:54:46;9.17;;;2.30;;
13327;SDS011;6733;51.044;3.746;2023-08-06T07:57:12;7.53;;;2.47;;
13327;SDS011;6733;51.044;3.746;2023-08-06T07:59:39;6.37;;;3.07;;
13327;SDS011;6733;51.044;3.746;2023-08-06T08:02:05;9.43;;;2.90;;
13327;SDS011;6733;51.044;3.746;2023-08-06T08:04:31;9.93;;;3.27;;
13327;SDS011;6733;51.044;3.746;2023-08-06T08:06:58;10.37;;;3.00;;
13327;SDS011;6733;51.044;3.746;2023-08-06T08:09:24;9.43;;;3.23;;
13327;SDS011;6733;51.044;3.746;2023-08-06T08:11:50;8.83;;;3.00;;
13327;SDS011;6733;51.044;3.746;2023-08-06T08:14:16;8.37;;;3.10;;
13327;SDS011;6733;51.044;3.746;2023-08-06T08:16:42;8.47;;;3.20;;
13327;SDS011;6733;51.044;3.746;2023-08-06T08:19:09;9.30;;;2.83;;
13327;SDS011;6733;51.044;3.746;2023-08-06T08:21:35;5.63;;;2.80;;
13327;SDS011;6733;51.044;3.746;2023-08-06T08:24:03;10.33;;;2.97;;
13327;SDS011;6733;51.044;3.746;2023-08-06T08:26:30;9.67;;;3.33;;
13327;SDS011;6733;51.044;3.746;2023-08-06T08:28:56;8.47;;;2.60;;
13327;SDS011;6733;51.044;3.746;2023-08-06T08:31:22;10.83;;;3.63;;
13327;SDS011;6733;51.044;3.746;2023-08-06T08:33:48;8.83;;;2.77;;
13327;SDS011;6733;51.044;3.746;2023-08-06T08:36:15;9.83;;;3.80;;
13327;SDS011;6733;51.044;3.746;2023-08-06T08:38:41;7.23;;;3.03;;
13327;SDS011;6733;51.044;3.746;2023-08-06T08:41:09;8.20;;;3.03;;
13327;SDS011;6733;51.044;3.746;2023-08-06T08:43:35;8.47;;;3.67;;
13327;SDS011;6733;51.044;3.746;2023-08-06T08:46:03;8.93;;;3.13;;
13327;SDS011;6733;51.044;3.746;2023-08-06T08:48:31;8.60;;;3.37;;
13327;SDS011;6733;51.044;3.746;2023-08-06T08:50:57;8.47;;;2.90;;
13327;SDS011;6733;51.044;3.746;2023-08-06T08:53:24;7.53;;;3.40;;
13327;SDS011;6733;51.044;3.746;2023-08-06T08:55:52;9.53;;;3.10;;
13327;SDS011;6733;51.044;3.746;2023-08-06T08:58:18;10.35;;;3.20;;
13327;SDS011;6733;51.044;3.746;2023-08-06T09:00:48;6.57;;;2.93;;
13327;SDS011;6733;51.044;3.746;2023-08-06T09:03:15;10.07;;;3.10;;
13327;SDS011;6733;51.044;3.746;2023-08-06T09:05:46;9.17;;;3.13;;
13327;SDS011;6733;51.044;3.746;2023-08-06T09:08:18;8.20;;;3.23;;
13327;SDS011;6733;51.044;3.746;2023-08-06T09:10:46;9.30;;;2.70;;
13327;SDS011;6733;51.044;3.746;2023-08-06T09:13:14;8.17;;;2.80;;
13327;SDS011;6733;51.044;3.746;2023-08-06T09:15:40;8.17;;;2.60;;
13327;SDS011;6733;51.044;3.746;2023-08-06T09:18:10;7.50;;;2.60;;
13327;SDS011;6733;51.044;3.746;2023-08-06T09:20:38;7.20;;;2.70;;
13327;SDS011;6733;51.044;3.746;2023-08-06T09:23:08;10.63;;;3.03;;
13327;SDS011;6733;51.044;3.746;2023-08-06T09:25:39;7.13;;;2.60;;
13327;SDS011;6733;51.044;3.746;2023-08-06T09:28:08;8.73;;;2.87;;
13327;SDS011;6733;51.044;3.746;2023-08-06T09:30:35;9.13;;;2.83;;
13327;SDS011;6733;51.044;3.746;2023-08-06T09:33:02;7.90;;;2.37;;
13327;SDS011;6733;51.044;3.746;2023-08-06T09:35:33;6.43;;;2.30;;
13327;SDS011;6733;51.044;3.746;2023-08-06T09:38:09;8.73;;;2.80;;
13327;SDS011;6733;51.044;3.746;2023-08-06T09:40:36;6.30;;;2.97;;
13327;SDS011;6733;51.044;3.746;2023-08-06T09:43:02;11.43;;;3.17;;
13327;SDS011;6733;51.044;3.746;2023-08-06T09:45:36;7.70;;;2.73;;
13327;SDS011;6733;51.044;3.746;2023-08-06T09:48:06;8.33;;;3.10;;
13327;SDS011;6733;51.044;3.746;2023-08-06T09:50:35;7.30;;;2.77;;
13327;SDS011;6733;51.044;3.746;2023-08-06T09:53:03;7.77;;;3.27;;
13327;SDS011;6733;51.044;3.746;2023-08-06T09:55:30;8.77;;;2.90;;
13327;SDS011;6733;51.044;3.746;2023-08-06T09:57:58;9.57;;;3.50;;
13327;SDS011;6733;51.044;3.746;2023-08-06T10:00:25;11.47;;;3.30;;
13327;SDS011;6733;51.044;3.746;2023-08-06T10:02:52;8.33;;;3.50;;
13327;SDS011;6733;51.044;3.746;2023-08-06T10:05:21;7.83;;;3.03;;
13327;SDS011;6733;51.044;3.746;2023-08-06T10:07:49;5.57;;;2.70;;
13327;SDS011;6733;51.044;3.746;2023-08-06T10:10:18;11.63;;;3.20;;
13327;SDS011;6733;51.044;3.746;2023-08-06T10:12:49;7.67;;;3.10;;
13327;SDS011;6733;51.044;3.746;2023-08-06T10:15:21;11.27;;;3.63;;
13327;SDS011;6733;51.044;3.746;2023-08-06T10:17:51;6.43;;;2.73;;
13327;SDS011;6733;51.044;3.746;2023-08-06T10:20:21;4.53;;;2.73;;
13327;SDS011;6733;51.044;3.746;2023-08-06T10:23:04;6.17;;;2.47;;
13327;SDS011;6733;51.044;3.746;2023-08-06T10:25:33;7.07;;;2.83;;
13327;SDS011;6733;51.044;3.746;2023-08-06T10:28:00;5.93;;;2.57;;
13327;SDS011;6733;51.044;3.746;2023-08-06T10:30:33;5.17;;;2.60;;
13327;SDS011;6733;51.044;3.746;2023-08-06T10:33:06;6.07;;;2.83;;
13327;SDS011;6733;51.044;3.746;2023-08-06T10:38:18;6.80;;;2.67;;
13327;SDS011;6733;51.044;3.746;2023-08-06T10:43:29;5.33;;;2.50;;
13327;SDS011;6733;51.044;3.746;2023-08-06T10:46:04;5.33;;;2.60;;
13327;SDS011;6733;51.044;3.746;2023-08-06T10:48:39;6.77;;;2.47;;
13327;SDS011;6733;51.044;3.746;2023-08-06T10:51:10;5.70;;;2.40;;
13327;SDS011;6733;51.044;3.746;2023-08-06T10:53:38;7.73;;;2.87;;
13327;SDS011;6733;51.044;3.746;2023-08-06T10:56:17;10.27;;;2.87;;
13327;SDS011;6733;51.044;3.746;2023-08-06T10:58:49;5.67;;;2.30;;
13327;SDS011;6733;51.044;3.746;2023-08-06T11:01:16;8.70;;;2.80;;
13327;SDS011;6733;51.044;3.746;2023-08-06T11:03:44;6.57;;;2.60;;
13327;SDS011;6733;51.044;3.746;2023-08-06T11:06:16;6.43;;;2.77;;
13327;SDS011;6733;51.044;3.746;2023-08-06T11:08:50;8.77;;;3.47;;
13327;SDS011;6733;51.044;3.746;2023-08-06T11:11:18;10.87;;;3.43;;
13327;SDS011;6733;51.044;3.746;2023-08-06T11:13:49;6.40;;;2.80;;
13327;SDS011;6733;51.044;3.746;2023-08-06T11:16:17;7.57;;;2.80;;
13327;SDS011;6733;51.044;3.746;2023-08-06T11:18:45;10.57;;;3.10;;
13327;SDS011;6733;51.044;3.746;2023-08-06T11:21:11;6.23;;;3.20;;
13327;SDS011;6733;51.044;3.746;2023-08-06T11:23:37;9.17;;;3.10;;
13327;SDS011;6733;51.044;3.746;2023-08-06T11:26:04;7.17;;;3.00;;
13327;SDS011;6733;51.044;3.746;2023-08-06T11:28:31;6.13;;;2.87;;
13327;SDS011;6733;51.044;3.746;2023-08-06T11:30:58;6.67;;;2.53;;
13327;SDS011;6733;51.044;3.746;2023-08-06T11:33:28;6.70;;;2.77;;
13327;SDS011;6733;51.044;3.746;2023-08-06T11:35:55;9.13;;;3.13;;
13327;SDS011;6733;51.044;3.746;2023-08-06T11:38:24;5.83;;;2.90;;
13327;SDS011;6733;51.044;3.746;2023-08-06T11:40:52;6.47;;;2.67;;
13327;SDS011;6733;51.044;3.746;2023-08-06T11:43:19;11.13;;;3.80;;
13327;SDS011;6733;51.044;3.746;2023-08-06T11:45:46;6.47;;;3.17;;
13327;SDS011;6733;51.044;3.746;2023-08-06T11:48:12;11.67;;;2.93;;
13327;SDS011;6733;51.044;3.746;2023-08-06T11:50:38;7.60;;;3.00;;
13327;SDS011;6733;51.044;3.746;2023-08-06T11:53:04;8.10;;;3.00;;
13327;SDS011;6733;51.044;3.746;2023-08-06T11:55:31;5.73;;;2.80;;
13327;SDS011;6733;51.044;3.746;2023-08-06T11:57:57;8.80;;;3.07;;
13327;SDS011;6733;51.044;3.746;2023-08-06T12:00:28;6.30;;;2.70;;
13327;SDS011;6733;51.044;3.746;2023-08-06T12:02:55;8.20;;;3.17;;
13327;SDS011;6733;51.044;3.746;2023-08-06T12:05:23;5.80;;;2.40;;
13327;SDS011;6733;51.044;3.746;2023-08-06T12:07:58;9.00;;;2.60;;
13327;SDS011;6733;51.044;3.746;2023-08-06T12:10:26;7.37;;;2.50;;
13327;SDS011;6733;51.044;3.746;2023-08-06T12:12:53;9.30;;;2.63;;
13327;SDS011;6733;51.044;3.746;2023-08-06T12:15:20;7.77;;;3.13;;
13327;SDS011;6733;51.044;3.746;2023-08-06T12:17:49;8.43;;;2.80;;
13327;SDS011;6733;51.044;3.746;2023-08-06T12:20:15;5.77;;;2.20;;
13327;SDS011;6733;51.044;3.746;2023-08-06T12:22:41;9.73;;;2.50;;
13327;SDS011;6733;51.044;3.746;2023-08-06T12:25:11;6.37;;;2.43;;
13327;SDS011;6733;51.044;3.746;2023-08-06T12:27:38;7.67;;;2.60;;
13327;SDS011;6733;51.044;3.746;2023-08-06T12:30:07;6.93;;;3.00;;
13327;SDS011;6733;51.044;3.746;2023-08-06T12:32:34;6.13;;;2.73;;
13327;SDS011;6733;51.044;3.746;2023-08-06T12:35:00;5.73;;;2.77;;
13327;SDS011;6733;51.044;3.746;2023-08-06T12:37:27;6.53;;;2.47;;
13327;SDS011;6733;51.044;3.746;2023-08-06T12:39:54;8.53;;;2.73;;
13327;SDS011;6733;51.044;3.746;2023-08-06T12:42:20;6.77;;;2.30;;
13327;SDS011;6733;51.044;3.746;2023-08-06T12:44:48;7.53;;;2.47;;
13327;SDS011;6733;51.044;3.746;2023-08-06T12:47:15;5.27;;;2.43;;
13327;SDS011;6733;51.044;3.746;2023-08-06T12:49:42;6.07;;;2.20;;
13327;SDS011;6733;51.044;3.746;2023-08-06T12:52:08;7.50;;;2.60;;
13327;SDS011;6733;51.044;3.746;2023-08-06T12:54:35;5.57;;;2.47;;
13327;SDS011;6733;51.044;3.746;2023-08-06T12:57:02;8.97;;;2.60;;
13327;SDS011;6733;51.044;3.746;2023-08-06T12:59:29;10.43;;;4.40;;
13327;SDS011;6733;51.044;3.746;2023-08-06T13:01:55;5.13;;;2.47;;
13327;SDS011;6733;51.044;3.746;2023-08-06T13:04:21;8.30;;;2.87;;
13327;SDS011;6733;51.044;3.746;2023-08-06T13:06:47;10.85;;;3.50;;
13327;SDS011;6733;51.044;3.746;2023-08-06T13:09:14;8.37;;;2.53;;
13327;SDS011;6733;51.044;3.746;2023-08-06T13:11:41;5.37;;;2.60;;
13327;SDS011;6733;51.044;3.746;2023-08-06T13:14:08;7.30;;;3.20;;
13327;SDS011;6733;51.044;3.746;2023-08-06T13:16:39;6.70;;;2.85;;
13327;SDS011;6733;51.044;3.746;2023-08-06T13:19:07;9.03;;;2.57;;
13327;SDS011;6733;51.044;3.746;2023-08-06T13:21:35;7.07;;;2.70;;
13327;SDS011;6733;51.044;3.746;2023-08-06T13:24:08;8.07;;;3.10;;
13327;SDS011;6733;51.044;3.746;2023-08-06T13:26:34;10.47;;;2.90;;
13327;SDS011;6733;51.044;3.746;2023-08-06T13:29:00;4.97;;;2.53;;
13327;SDS011;6733;51.044;3.746;2023-08-06T13:31:28;6.57;;;3.00;;
13327;SDS011;6733;51.044;3.746;2023-08-06T13:33:54;7.07;;;2.30;;
13327;SDS011;6733;51.044;3.746;2023-08-06T13:36:21;16.20;;;3.30;;
13327;SDS011;6733;51.044;3.746;2023-08-06T13:38:48;7.13;;;2.70;;
13327;SDS011;6733;51.044;3.746;2023-08-06T13:41:15;7.50;;;2.93;;
13327;SDS011;6733;51.044;3.746;2023-08-06T13:43:42;4.60;;;2.33;;
13327;SDS011;6733;51.044;3.746;2023-08-06T13:46:09;5.30;;;2.60;;
13327;SDS011;6733;51.044;3.746;2023-08-06T13:48:42;7.00;;;2.60;;
13327;SDS011;6733;51.044;3.746;2023-08-06T13:51:08;8.77;;;2.70;;
13327;SDS011;6733;51.044;3.746;2023-08-06T13:53:36;5.50;;;3.07;;
13327;SDS011;6733;51.044;3.746;2023-08-06T13:56:04;7.53;;;2.50;;
13327;SDS011;6733;51.044;3.746;2023-08-06T13:58:31;7.83;;;2.63;;
13327;SDS011;6733;51.044;3.746;2023-08-06T14:00:58;7.00;;;2.77;;
13327;SDS011;6733;51.044;3.746;2023-08-06T14:03:24;8.13;;;2.70;;
13327;SDS011;6733;51.044;3.746;2023-08-06T14:05:51;7.80;;;3.47;;
13327;SDS011;6733;51.044;3.746;2023-08-06T14:08:18;4.43;;;2.53;;
13327;SDS011;6733;51.044;3.746;2023-08-06T14:10:44;11.30;;;3.17;;
13327;SDS011;6733;51.044;3.746;2023-08-06T14:13:11;8.03;;;2.73;;
13327;SDS011;6733;51.044;3.746;2023-08-06T14:15:38;7.47;;;3.07;;
13327;SDS011;6733;51.044;3.746;2023-08-06T14:18:07;4.83;;;2.47;;
13327;SDS011;6733;51.044;3.746;2023-08-06T14:20:34;3.47;;;2.37;;
13327;SDS011;6733;51.044;3.746;2023-08-06T14:23:00;6.33;;;2.13;;
13327;SDS011;6733;51.044;3.746;2023-08-06T14:25:27;5.43;;;2.53;;
13327;SDS011;6733;51.044;3.746;2023-08-06T14:27:53;6.13;;;2.50;;
13327;SDS011;6733;51.044;3.746;2023-08-06T14:30:19;6.47;;;2.67;;
13327;SDS011;6733;51.044;3.746;2023-08-06T14:32:46;5.37;;;2.07;;
13327;SDS011;6733;51.044;3.746;2023-08-06T14:35:12;6.90;;;2.87;;
13327;SDS011;6733;51.044;3.746;2023-08-06T14:37:38;8.50;;;2.70;;
13327;SDS011;6733;51.044;3.746;2023-08-06T14:40:06;7.00;;;2.43;;
13327;SDS011;6733;51.044;3.746;2023-08-06T14:42:33;6.10;;;2.47;;
13327;SDS011;6733;51.044;3.746;2023-08-06T14:44:59;4.97;;;2.20;;
13327;SDS011;6733;51.044;3.746;2023-08-06T14:47:25;10.87;;;3.00;;
13327;SDS011;6733;51.044;3.746;2023-08-06T14:49:52;4.47;;;2.40;;
13327;SDS011;6733;51.044;3.746;2023-08-06T14:52:18;6.30;;;2.40;;
13327;SDS011;6733;51.044;3.746;2023-08-06T14:54:44;5.70;;;2.50;;
13327;SDS011;6733;51.044;3.746;2023-08-06T14:57:10;8.60;;;2.93;;
13327;SDS011;6733;51.044;3.746;2023-08-06T14:59:38;6.20;;;2.70;;
13327;SDS011;6733;51.044;3.746;2023-08-06T15:02:05;7.20;;;2.63;;
13327;SDS011;6733;51.044;3.746;2023-08-06T15:04:32;10.33;;;3.53;;
13327;SDS011;6733;51.044;3.746;2023-08-06T15:06:58;7.07;;;2.50;;
13327;SDS011;6733;51.044;3.746;2023-08-06T15:09:24;7.50;;;2.67;;
13327;SDS011;6733;51.044;3.746;2023-08-06T15:11:50;7.50;;;3.07;;
13327;SDS011;6733;51.044;3.746;2023-08-06T15:14:16;5.60;;;2.30;;
13327;SDS011;6733;51.044;3.746;2023-08-06T15:16:43;6.33;;;2.60;;
13327;SDS011;6733;51.044;3.746;2023-08-06T15:19:11;6.13;;;2.40;;
13327;SDS011;6733;51.044;3.746;2023-08-06T15:21:38;7.87;;;2.77;;
13327;SDS011;6733;51.044;3.746;2023-08-06T15:24:04;5.93;;;2.67;;
13327;SDS011;6733;51.044;3.746;2023-08-06T15:26:30;7.50;;;2.77;;
13327;SDS011;6733;51.044;3.746;2023-08-06T15:28:57;5.80;;;2.50;;
13327;SDS011;6733;51.044;3.746;2023-08-06T15:31:23;4.87;;;2.20;;
13327;SDS011;6733;51.044;3.746;2023-08-06T15:33:49;4.80;;;2.50;;
13327;SDS011;6733;51.044;3.746;2023-08-06T15:36:15;7.37;;;3.03;;
13327;SDS011;6733;51.044;3.746;2023-08-06T15:38:42;6.13;;;2.67;;
13327;SDS011;6733;51.044;3.746;2023-08-06T15:41:08;5.23;;;2.60;;
13327;SDS011;6733;51.044;3.746;2023-08-06T15:43:34;9.63;;;3.73;;
13327;SDS011;6733;51.044;3.746;2023-08-06T15:46:00;6.17;;;2.60;;
13327;SDS011;6733;51.044;3.746;2023-08-06T15:48:27;4.00;;;2.40;;
13327;SDS011;6733;51.044;3.746;2023-08-06T15:50:55;6.73;;;2.73;;
13327;SDS011;6733;51.044;3.746;2023-08-06T15:53:21;6.63;;;2.77;;
13327;SDS011;6733;51.044;3.746;2023-08-06T15:55:48;4.47;;;2.30;;
13327;SDS011;6733;51.044;3.746;2023-08-06T15:58:14;5.30;;;2.70;;
13327;SDS011;6733;51.044;3.746;2023-08-06T16:00:41;8.97;;;2.90;;
13327;SDS011;6733;51.044;3.746;2023-08-06T16:03:07;5.90;;;2.30;;
13327;SDS011;6733;51.044;3.746;2023-08-06T16:05:34;6.13;;;2.40;;
13327;SDS011;6733;51.044;3.746;2023-08-06T16:08:00;4.63;;;2.53;;
13327;SDS011;6733;51.044;3.746;2023-08-06T16:10:26;6.87;;;2.40;;
13327;SDS011;6733;51.044;3.746;2023-08-06T16:12:52;6.07;;;2.80;;
13327;SDS011;6733;51.044;3.746;2023-08-06T16:15:19;5.20;;;2.23;;
13327;SDS011;6733;51.044;3.746;2023-08-06T16:17:45;4.57;;;2.40;;
13327;SDS011;6733;51.044;3.746;2023-08-06T16:20:12;5.63;;;2.80;;
13327;SDS011;6733;51.044;3.746;2023-08-06T16:22:41;4.73;;;2.40;;
13327;SDS011;6733;51.044;3.746;2023-08-06T16:25:08;7.77;;;2.93;;
13327;SDS011;6733;51.044;3.746;2023-08-06T16:27:38;8.13;;;2.43;;
13327;SDS011;6733;51.044;3.746;2023-08-06T16:30:05;5.13;;;2.83;;
13327;SDS011;6733;51.044;3.746;2023-08-06T16:32:32;11.13;;;2.80;;
13327;SDS011;6733;51.044;3.746;2023-08-06T16:34:59;7.17;;;2.87;;
13327;SDS011;6733;51.044;3.746;2023-08-06T16:37:26;6.67;;;2.73;;
13327;SDS011;6733;51.044;3.746;2023-08-06T16:39:52;8.87;;;2.60;;
13327;SDS011;6733;51.044;3.746;2023-08-06T16:42:19;6.40;;;3.27;;
13327;SDS011;6733;51.044;3.746;2023-08-06T16:44:45;6.37;;;2.90;;